Time;durP1;ratioP1;P1;durP2;ratioP2;P2;SDS_P1;SDS_P2;PMS_P1;PMS_P2;Temp;Humidity;BMP_temperature;BMP_pressure;BME280_temperature;BME280_humidity;BME280_pressure;Samples;Min_cycle;Max_cycle;Signal;HPM_P1;HPM_P2
2023/09/05 00:00:48;;;;;;;2.20;2.00;;;23.80;89.00;;;;;;6186012;23;20730;-83
2023/09/05 00:03:16;;;;;;;2.40;2.20;;;23.80;89.00;;;;;;6185946;23;20409;-84
2023/09/05 00:05:43;;;;;;;2.50;2.30;;;23.80;89.00;;;;;;6185982;23;20406;-84
2023/09/05 00:08:10;;;;;;;2.30;2.10;;;23.80;89.10;;;;;;6185837;23;20402;-84
2023/09/05 00:10:36;;;;;;;1.73;1.63;;;23.80;89.00;;;;;;6186025;23;20405;-84
2023/09/05 00:13:05;;;;;;;2.27;2.07;;;23.80;89.00;;;;;;6185820;23;20718;-84
2023/09/05 00:15:33;;;;;;;1.87;1.77;;;23.80;89.00;;;;;;6185830;23;20484;-84
2023/09/05 00:18:00;;;;;;;1.60;1.50;;;23.80;89.00;;;;;;6185803;23;20441;-84
2023/09/05 00:20:27;;;;;;;2.50;2.30;;;23.80;89.00;;;;;;6185730;23;20438;-84
2023/09/05 00:22:54;;;;;;;1.97;1.87;;;23.80;89.00;;;;;;6185791;23;20402;-84
2023/09/05 00:25:21;;;;;;;2.03;1.93;;;23.80;89.00;;;;;;6185816;23;20456;-84
2023/09/05 00:27:47;;;;;;;2.50;2.30;;;23.80;88.90;;;;;;6185919;23;20482;-84
2023/09/05 00:30:16;;;;;;;2.20;2.00;;;23.80;88.90;;;;;;6185546;23;20431;-83
2023/09/05 00:32:46;;;;;;;1.90;1.80;;;23.80;88.90;;;;;;6185764;23;20399;-84
2023/09/05 00:35:14;;;;;;;2.17;2.07;;;23.80;88.90;;;;;;6186019;23;20398;-89
2023/09/05 00:37:41;;;;;;;2.00;1.90;;;23.80;88.90;;;;;;6185206;23;20483;-84
2023/09/05 00:40:09;;;;;;;1.97;1.77;;;23.80;88.90;;;;;;6185412;23;20412;-84
2023/09/05 00:42:35;;;;;;;2.27;2.10;;;23.80;88.90;;;;;;6186877;23;20403;-89
2023/09/05 00:45:03;;;;;;;2.50;2.30;;;23.80;89.60;;;;;;6187749;23;20497;-84
2023/09/05 00:47:30;;;;;;;2.47;2.27;;;23.80;88.90;;;;;;6187659;23;20485;-84
2023/09/05 00:50:01;;;;;;;2.23;2.13;;;23.80;88.80;;;;;;6187303;23;20476;-84
2023/09/05 00:52:28;;;;;;;2.27;2.03;;;23.80;88.80;;;;;;6187230;23;20400;-84
2023/09/05 00:54:55;;;;;;;2.07;1.97;;;23.80;88.80;;;;;;6187152;23;20904;-84
2023/09/05 00:57:23;;;;;;;2.20;2.00;;;23.80;88.80;;;;;;6187399;23;20449;-84
2023/09/05 00:59:51;;;;;;;1.90;1.80;;;23.80;88.80;;;;;;6187571;23;20402;-84
2023/09/05 01:02:18;;;;;;;2.03;1.87;;;23.70;88.70;;;;;;6187507;23;20692;-84
2023/09/05 01:04:45;;;;;;;1.93;1.80;;;23.80;88.80;;;;;;6187496;23;20394;-84
2023/09/05 01:07:21;;;;;;;2.47;2.27;;;23.70;88.60;;;;;;6187369;23;20987;-88
2023/09/05 01:09:53;;;;;;;2.00;1.90;;;23.70;88.70;;;;;;6187185;23;20391;-84
2023/09/05 01:12:20;;;;;;;2.47;2.10;;;23.80;88.80;;;;;;6187469;23;20786;-84
2023/09/05 01:14:47;;;;;;;1.60;1.50;;;23.70;88.60;;;;;;6187150;23;20406;-84
2023/09/05 01:17:14;;;;;;;1.90;1.80;;;23.70;88.60;;;;;;6187246;23;20430;-84
2023/09/05 01:19:42;;;;;;;3.73;2.13;;;23.70;88.60;;;;;;6187639;23;20418;-84
2023/09/05 01:22:19;;;;;;;2.40;2.20;;;23.70;88.60;;;;;;6187237;23;20409;-84
2023/09/05 01:24:49;;;;;;;2.33;2.23;;;23.70;88.60;;;;;;6187405;23;20765;-84
2023/09/05 01:27:20;;;;;;;3.70;2.30;;;23.70;88.60;;;;;;6186950;23;20387;-84
2023/09/05 01:29:47;;;;;;;2.00;1.90;;;23.70;88.60;;;;;;6187095;23;20461;-84
2023/09/05 01:32:15;;;;;;;2.43;2.23;;;23.70;88.60;;;;;;6187145;23;20531;-84
2023/09/05 01:34:42;;;;;;;1.73;1.63;;;23.70;88.60;;;;;;6187508;23;20417;-84
2023/09/05 01:37:13;;;;;;;1.83;1.73;;;23.70;88.50;;;;;;6187164;23;20525;-84
2023/09/05 01:39:40;;;;;;;1.90;1.80;;;23.70;88.60;;;;;;6187476;23;20400;-84
2023/09/05 01:42:08;;;;;;;2.40;2.20;;;23.70;88.60;;;;;;6186757;23;20405;-84
2023/09/05 01:44:36;;;;;;;2.80;2.27;;;23.70;88.50;;;;;;6187464;23;20393;-84
2023/09/05 01:47:03;;;;;;;1.67;1.57;;;23.70;88.50;;;;;;6187048;23;20398;-84
2023/09/05 01:49:30;;;;;;;2.80;2.20;;;23.70;89.40;;;;;;6187348;23;20429;-84
2023/09/05 01:51:57;;;;;;;1.97;1.87;;;23.80;88.60;;;;;;6186580;23;20894;-84
2023/09/05 01:54:24;;;;;;;1.50;1.40;;;23.70;88.50;;;;;;6186631;23;20886;-84
2023/09/05 01:56:51;;;;;;;2.00;1.80;;;23.70;88.50;;;;;;6186431;23;20905;-84
2023/09/05 01:59:20;;;;;;;2.07;1.97;;;23.70;88.50;;;;;;6187013;23;20407;-84
2023/09/05 02:01:46;;;;;;;2.27;2.07;;;23.70;88.60;;;;;;6186527;23;20887;-84
2023/09/05 02:04:13;;;;;;;2.10;2.00;;;23.70;88.50;;;;;;6186942;23;20407;-84
2023/09/05 02:06:40;;;;;;;2.03;1.87;;;23.70;88.50;;;;;;6186900;23;20402;-84
2023/09/05 02:09:07;;;;;;;3.23;1.90;;;23.70;88.50;;;;;;6187183;23;20399;-84
2023/09/05 02:11:34;;;;;;;3.10;1.70;;;23.70;88.50;;;;;;6186491;23;20402;-84
2023/09/05 02:14:01;;;;;;;2.10;2.00;;;23.70;88.50;;;;;;6186436;23;20410;-89
2023/09/05 02:16:30;;;;;;;2.10;1.90;;;23.70;88.50;;;;;;6186817;23;20402;-84
2023/09/05 02:18:57;;;;;;;2.27;2.07;;;23.70;88.50;;;;;;6186659;23;20534;-89
2023/09/05 02:21:24;;;;;;;3.10;2.37;;;23.70;88.50;;;;;;6186716;23;20398;-84
2023/09/05 02:23:51;;;;;;;1.90;1.80;;;23.70;88.50;;;;;;6186810;23;20402;-84
2023/09/05 02:26:17;;;;;;;2.00;1.80;;;23.70;88.50;;;;;;6186718;23;20405;-83
2023/09/05 02:28:44;;;;;;;1.80;1.70;;;23.70;88.50;;;;;;6186804;23;20485;-84
2023/09/05 02:31:11;;;;;;;2.13;1.93;;;23.70;88.50;;;;;;6186254;23;20472;-84
2023/09/05 02:33:39;;;;;;;1.87;1.77;;;23.70;88.50;;;;;;6186709;23;20414;-84
2023/09/05 02:36:15;;;;;;;2.33;2.13;;;23.80;88.60;;;;;;6186556;23;20406;-84
2023/09/05 02:38:42;;;;;;;1.70;1.60;;;23.70;88.50;;;;;;6186580;23;20464;-84
2023/09/05 02:41:11;;;;;;;2.13;2.03;;;23.70;88.40;;;;;;6186639;23;20719;-89
2023/09/05 02:43:38;;;;;;;1.80;1.70;;;23.70;88.50;;;;;;6186545;23;20410;-84
2023/09/05 02:46:05;;;;;;;1.83;1.73;;;23.70;88.40;;;;;;6185922;23;20412;-86
2023/09/05 02:48:32;;;;;;;2.00;1.90;;;23.70;88.50;;;;;;6185879;23;20402;-84
2023/09/05 02:51:04;;;;;;;1.63;1.53;;;23.80;88.60;;;;;;6185191;23;20441;-84
2023/09/05 02:53:31;;;;;;;1.80;1.70;;;23.70;88.50;;;;;;6186421;23;20409;-84
2023/09/05 02:55:58;;;;;;;4.20;1.97;;;23.70;88.40;;;;;;6186065;23;20388;-84
2023/09/05 02:58:26;;;;;;;2.03;1.90;;;23.80;88.50;;;;;;6186010;23;20942;-84
2023/09/05 03:00:53;;;;;;;1.90;1.70;;;23.70;88.40;;;;;;6186387;23;20401;-89
2023/09/05 03:03:20;;;;;;;1.80;1.70;;;23.70;88.40;;;;;;6186425;23;20407;-84
2023/09/05 03:05:47;;;;;;;1.73;1.63;;;23.70;88.40;;;;;;6186108;23;20548;-84
2023/09/05 03:08:15;;;;;;;2.00;1.90;;;23.70;89.20;;;;;;6186323;23;20397;-84
2023/09/05 03:10:42;;;;;;;1.70;1.60;;;23.70;88.40;;;;;;6186354;23;20402;-84
2023/09/05 03:13:09;;;;;;;1.77;1.67;;;23.70;88.40;;;;;;6185816;23;20489;-84
2023/09/05 03:15:35;;;;;;;2.37;2.17;;;23.70;88.40;;;;;;6186361;23;20417;-84
2023/09/05 03:18:02;;;;;;;1.90;1.80;;;23.70;88.40;;;;;;6185752;23;20442;-84
2023/09/05 03:20:29;;;;;;;4.20;1.90;;;23.60;88.20;;;;;;6185705;23;20418;-84
2023/09/05 03:22:56;;;;;;;2.07;1.80;;;23.70;88.30;;;;;;6185890;23;20879;-84
2023/09/05 03:25:24;;;;;;;1.70;1.60;;;23.70;88.30;;;;;;6185825;23;20406;-84
2023/09/05 03:27:50;;;;;;;1.60;1.50;;;23.70;88.30;;;;;;6186204;23;20436;-87
2023/09/05 03:30:17;;;;;;;1.87;1.77;;;23.70;88.30;;;;;;6185953;23;20434;-84
2023/09/05 03:32:44;;;;;;;1.50;1.30;;;23.70;88.30;;;;;;6185951;23;20493;-84
2023/09/05 03:35:11;;;;;;;1.80;1.70;;;23.70;88.30;;;;;;6186128;23;20402;-84
2023/09/05 03:37:38;;;;;;;2.07;1.87;;;23.70;88.30;;;;;;6185996;23;20446;-84
2023/09/05 03:40:06;;;;;;;1.80;1.70;;;23.60;88.20;;;;;;6186032;23;20410;-84
2023/09/05 03:42:36;;;;;;;1.70;1.60;;;23.60;88.20;;;;;;6185273;23;20891;-84
2023/09/05 03:45:03;;;;;;;1.47;1.37;;;23.60;88.10;;;;;;6186046;23;20400;-84
2023/09/05 03:47:29;;;;;;;1.90;1.80;;;23.60;88.10;;;;;;6186010;23;20441;-84
2023/09/05 03:49:56;;;;;;;1.80;1.70;;;23.60;88.10;;;;;;6185965;23;20415;-84
2023/09/05 03:52:23;;;;;;;1.80;1.70;;;23.60;88.10;;;;;;6185832;23;20405;-84
2023/09/05 03:54:50;;;;;;;1.93;1.73;;;23.60;88.10;;;;;;6186252;23;20403;-88
2023/09/05 03:57:17;;;;;;;1.80;1.70;;;23.60;88.10;;;;;;6185899;23;20403;-84
2023/09/05 03:59:45;;;;;;;1.60;1.50;;;23.60;88.10;;;;;;6185629;23;20906;-84
2023/09/05 04:02:12;;;;;;;1.93;1.70;;;23.60;88.10;;;;;;6185925;23;20402;-84
2023/09/05 04:04:38;;;;;;;1.70;1.60;;;23.60;88.10;;;;;;6185934;23;20731;-88
2023/09/05 04:07:06;;;;;;;1.97;1.33;;;23.60;88.10;;;;;;6185792;23;20394;-84
2023/09/05 04:09:33;;;;;;;1.83;1.73;;;23.60;88.10;;;;;;6185897;23;20402;-84
2023/09/05 04:12:00;;;;;;;2.07;1.70;;;23.60;88.10;;;;;;6185714;23;20398;-89
2023/09/05 04:14:27;;;;;;;1.80;1.70;;;23.60;88.10;;;;;;6185982;23;20387;-90
2023/09/05 04:16:55;;;;;;;1.97;1.87;;;23.60;88.00;;;;;;6185992;23;20399;-88
2023/09/05 04:19:21;;;;;;;1.90;1.77;;;23.60;88.00;;;;;;6187489;23;20446;-87
2023/09/05 04:21:48;;;;;;;2.00;1.90;;;23.60;88.00;;;;;;6187685;23;20494;-83
2023/09/05 04:24:15;;;;;;;1.60;1.50;;;23.60;88.00;;;;;;6188025;23;20398;-84
2023/09/05 04:26:45;;;;;;;1.77;1.67;;;23.60;88.00;;;;;;6188269;23;20405;-84
2023/09/05 04:29:12;;;;;;;1.60;1.40;;;23.60;88.00;;;;;;6188079;23;20437;-84
2023/09/05 04:31:38;;;;;;;1.80;1.70;;;23.60;88.10;;;;;;6187059;23;20452;-88
2023/09/05 04:34:06;;;;;;;2.10;2.00;;;23.60;88.10;;;;;;6187849;23;20402;-88
2023/09/05 04:36:35;;;;;;;1.83;1.73;;;23.60;88.10;;;;;;6186455;23;20397;-83
2023/09/05 04:39:02;;;;;;;1.50;1.30;;;23.70;88.20;;;;;;6187455;23;20206;-84
2023/09/05 04:41:29;;;;;;;1.80;1.70;;;23.70;88.10;;;;;;6187543;23;20401;-84
2023/09/05 04:43:55;;;;;;;1.93;1.83;;;23.70;88.10;;;;;;6187832;23;20403;-89
2023/09/05 04:46:22;;;;;;;1.87;1.77;;;23.70;88.10;;;;;;6187857;23;20493;-84
2023/09/05 04:48:49;;;;;;;3.13;2.83;;;23.70;88.10;;;;;;6187626;23;20453;-90
2023/09/05 04:51:17;;;;;;;4.37;2.97;;;23.60;86.40;;;;;;6187735;23;20489;-84
2023/09/05 04:53:44;;;;;;;3.83;3.17;;;23.60;85.10;;;;;;6187098;23;20494;-91
2023/09/05 04:59:33;;;;;;;3.47;3.17;;;23.40;85.40;;;;;;6187463;23;20438;-89
2023/09/05 05:02:00;;;;;;;4.67;3.27;;;23.30;85.30;;;;;;6187032;23;20987;-91
2023/09/05 12:03:12;;;;;;;1.70;1.50;;;23.60;88.90;;;;;;6185800;23;20523;-84
2023/09/05 12:05:39;;;;;;;1.60;1.40;;;23.60;89.10;;;;;;6186027;23;20406;-84
2023/09/05 12:08:07;;;;;;;1.40;1.30;;;23.60;89.10;;;;;;6186013;23;20399;-84
2023/09/05 12:10:40;;;;;;;2.77;1.87;;;23.60;89.00;;;;;;6186027;23;20477;-85
2023/09/05 12:13:07;;;;;;;1.43;1.33;;;23.60;89.00;;;;;;6186086;23;20384;-85
2023/09/05 12:15:35;;;;;;;1.53;1.40;;;23.60;88.90;;;;;;6185792;23;20882;-84
2023/09/05 12:18:04;;;;;;;1.40;1.30;;;23.80;89.10;;;;;;6185429;23;20413;-84
2023/09/05 12:20:32;;;;;;;1.73;1.63;;;23.70;88.90;;;;;;6186191;23;20456;-85
2023/09/05 12:22:59;;;;;;;1.50;1.33;;;23.70;88.90;;;;;;6185487;23;20485;-85
2023/09/05 12:25:28;;;;;;;1.43;1.33;;;23.70;88.90;;;;;;6185956;23;20425;-84
2023/09/05 12:28:15;;;;;;;1.23;1.13;;;23.70;88.80;;;;;;6185554;23;20403;-84
2023/09/05 12:30:42;;;;;;;2.10;1.80;;;23.70;88.90;;;;;;6185246;23;20382;-84
2023/09/05 12:33:09;;;;;;;1.40;1.10;;;23.70;88.90;;;;;;6184859;23;20394;-86
